Time;durP1;ratioP1;P1;durP2;ratioP2;P2;SDS_P1;SDS_P2;PMS_P1;PMS_P2;Temp;Humidity;BMP_temperature;BMP_pressure;BME280_temperature;BME280_humidity;BME280_pressure;Samples;Min_cycle;Max_cycle;Signal;HPM_P1;HPM_P2
2022/08/02 00:02:02;;;;;;;15.60;3.33;;;11.30;99.90;;;10.13;97.47;101406.38;4999089;28;20109;-78
2022/08/02 00:04:28;;;;;;;18.13;3.85;;;11.30;99.90;;;10.07;97.12;101404.81;4986929;28;20068;-78
2022/08/02 00:06:54;;;;;;;17.73;3.45;;;11.20;99.90;;;10.03;96.79;101404.06;4980244;28;20058;-79
2022/08/02 00:09:20;;;;;;;;;;;11.20;99.90;;;9.94;96.38;101399.13;4995747;28;20042;-78
2022/08/02 00:11:48;;;;;;;13.27;2.55;;;11.00;99.90;;;9.89;95.27;101400.16;4966360;28;19914;-80
2022/08/02 00:14:14;;;;;;;9.77;2.00;;;11.00;99.90;;;9.83;94.17;101402.09;4949478;28;20215;-79
2022/08/02 00:16:40;;;;;;;14.90;2.20;;;10.90;99.90;;;9.77;92.45;101398.81;4939275;28;20471;-78
2022/08/02 00:19:05;;;;;;;9.65;1.92;;;10.90;99.90;;;9.67;90.88;101389.50;4963151;28;20132;-79
2022/08/02 00:21:31;;;;;;;9.77;3.03;;;10.80;99.90;;;9.48;89.15;101392.72;4966458;28;20397;-79
2022/08/02 00:23:57;;;;;;;12.45;2.95;;;10.70;99.90;;;9.31;89.27;101398.50;4967992;28;20030;-79
2022/08/02 00:26:23;;;;;;;9.07;2.85;;;10.50;99.90;;;9.16;89.04;101391.94;4945533;28;20660;-78
2022/08/02 00:28:48;;;;;;;10.93;2.90;;;10.40;99.90;;;9.04;89.74;101387.03;4983967;28;20129;-78
2022/08/02 00:31:19;;;;;;;11.95;2.70;;;10.30;99.90;;;8.95;89.66;101389.94;4971843;28;20026;-79
2022/08/02 00:33:45;;;;;;;10.63;2.67;;;10.20;99.90;;;8.87;89.72;101390.16;4955412;28;20039;-78
2022/08/02 00:36:11;;;;;;;10.55;2.78;;;10.10;99.90;;;8.82;90.16;101385.03;4947051;28;20076;-79
2022/08/02 00:38:37;;;;;;;19.27;3.13;;;10.10;99.90;;;8.79;90.71;101390.38;4954431;28;20410;-80
2022/08/02 00:41:03;;;;;;;10.40;3.13;;;10.00;99.90;;;8.77;91.89;101386.94;4983389;28;20046;-79
2022/08/02 00:43:36;;;;;;;16.50;3.75;;;10.00;99.90;;;8.78;92.67;101396.53;4963423;28;20104;-78
2022/08/02 00:46:02;;;;;;;15.00;4.13;;;10.00;99.90;;;8.80;93.73;101394.72;4960166;28;20038;-79
2022/08/02 00:48:28;;;;;;;19.25;4.47;;;10.00;99.90;;;8.82;95.70;101398.16;4952691;28;20104;-78
2022/08/02 00:50:55;;;;;;;16.50;3.92;;;10.00;99.90;;;8.85;96.69;101394.59;4990709;28;20097;-79
2022/08/02 00:53:26;;;;;;;14.50;3.60;;;10.00;99.90;;;8.85;97.06;101391.09;4963633;28;20083;-78
2022/08/02 00:55:51;;;;;;;19.52;3.13;;;10.00;99.90;;;8.83;97.10;101392.03;4931589;28;20034;-78
2022/08/02 00:58:17;;;;;;;8.25;2.88;;;10.00;99.90;;;8.82;96.13;101394.69;4965852;28;20046;-78
2022/08/02 01:00:43;;;;;;;8.65;3.20;;;10.00;99.90;;;8.81;95.75;101406.06;4958019;28;20126;-80
2022/08/02 01:03:09;;;;;;;15.65;3.13;;;10.00;99.90;;;8.77;95.52;101410.56;4940707;28;21189;-78
2022/08/02 01:05:34;;;;;;;10.07;2.60;;;9.90;99.90;;;8.74;95.32;101407.16;4962047;28;20034;-80
2022/08/02 01:08:07;;;;;;;11.75;2.15;;;9.90;99.90;;;8.69;95.11;101401.19;4956276;28;20509;-78
2022/08/02 01:10:33;;;;;;;11.38;2.90;;;9.90;99.90;;;8.64;94.89;101406.56;4991920;28;20527;-79
2022/08/02 01:12:58;;;;;;;11.75;3.28;;;9.90;99.90;;;8.63;95.03;101410.09;4992169;28;20041;-78
2022/08/02 01:15:25;;;;;;;15.07;3.63;;;9.90;99.90;;;8.65;95.94;101416.16;4947220;28;20046;-80
2022/08/02 01:18:19;;;;;;;16.90;4.47;;;9.90;99.90;;;8.68;97.73;101416.06;4950209;28;20066;-79
2022/08/02 01:21:28;;;;;;;19.55;3.90;;;9.90;99.90;;;8.71;99.34;101421.25;4935252;28;20074;-80
2022/08/02 01:24:07;;;;;;;15.73;4.15;;;9.90;99.90;;;8.72;99.74;101420.31;4957228;28;20113;-80
2022/08/02 01:27:21;;;;;;;18.50;4.38;;;9.90;99.90;;;8.78;100.00;101428.03;4978020;28;20380;-80
2022/08/02 01:29:52;;;;;;;18.83;3.97;;;9.90;99.90;;;8.80;100.00;101434.09;4968910;28;20034;-80
2022/08/02 01:32:26;;;;;;;15.75;4.35;;;10.00;99.90;;;8.84;100.00;101440.16;4969825;28;20058;-78
2022/08/02 01:35:07;;;;;;;18.35;4.82;;;10.00;99.90;;;8.87;100.00;101437.41;4933735;28;20464;-79
2022/08/02 01:37:57;;;;;;;12.50;3.42;;;10.00;99.90;;;8.89;100.00;101438.25;4960888;28;20046;-78
2022/08/02 01:40:39;;;;;;;14.48;3.65;;;10.00;99.90;;;8.90;100.00;101449.59;4963850;28;20058;-80
2022/08/02 01:43:08;;;;;;;24.17;5.15;;;10.00;99.90;;;8.91;100.00;101451.34;4961409;28;20029;-79
2022/08/02 01:45:36;;;;;;;13.80;4.05;;;10.00;99.90;;;8.92;100.00;101445.16;4982776;28;20044;-79
2022/08/02 01:48:06;;;;;;;17.45;4.75;;;10.10;99.90;;;8.94;100.00;101448.63;4992053;28;20060;-79
2022/08/02 01:50:35;;;;;;;17.38;4.88;;;10.10;99.90;;;8.95;100.00;101447.72;4935633;28;20118;-78
2022/08/02 01:53:10;;;;;;;14.68;4.28;;;10.10;99.90;;;8.96;100.00;101457.31;4926128;28;20054;-78
2022/08/02 01:55:46;;;;;;;21.17;5.13;;;10.20;99.90;;;8.95;100.00;101452.97;4971332;28;20039;-79
2022/08/02 01:58:16;;;;;;;16.38;4.20;;;10.10;99.90;;;8.93;100.00;101454.78;4935149;28;20060;-79
2022/08/02 02:00:43;;;;;;;9.10;2.72;;;10.10;99.90;;;8.88;100.00;101451.44;4972910;28;20164;-78
2022/08/02 02:03:22;;;;;;;15.07;3.53;;;10.00;99.90;;;8.81;100.00;101462.09;4951845;28;20030;-78
2022/08/02 02:05:50;;;;;;;18.50;4.75;;;10.00;99.90;;;8.78;100.00;101456.91;4941306;28;20038;-79
2022/08/02 02:08:31;;;;;;;12.20;4.57;;;10.00;99.90;;;8.77;100.00;101457.00;4932920;28;20125;-78
2022/08/02 02:11:01;;;;;;;13.13;4.18;;;9.90;99.90;;;8.79;100.00;101458.66;4944706;28;20039;-79
2022/08/02 02:13:28;;;;;;;16.17;4.28;;;10.00;99.90;;;8.79;100.00;101463.03;4952032;28;20372;-79
2022/08/02 02:15:55;;;;;;;12.43;3.85;;;10.00;99.90;;;8.79;100.00;101458.66;4971633;28;20038;-80
2022/08/02 02:18:29;;;;;;;26.25;5.78;;;10.00;99.90;;;8.79;100.00;101453.41;4952885;28;20042;-79
2022/08/02 02:20:56;;;;;;;13.60;4.38;;;9.90;99.90;;;8.80;100.00;101455.13;4944555;28;20035;-79
2022/08/02 02:23:22;;;;;;;22.70;5.07;;;10.00;99.90;;;8.80;100.00;101460.38;4933904;28;20085;-78
2022/08/02 02:25:48;;;;;;;16.88;4.65;;;9.90;99.90;;;8.80;100.00;101451.63;4940879;28;20035;-78
2022/08/02 02:28:29;;;;;;;15.20;4.50;;;9.90;99.90;;;8.81;100.00;101456.84;4961502;28;20038;-79
2022/08/02 02:31:05;;;;;;;29.70;5.68;;;9.90;99.90;;;8.78;100.00;101441.16;4945637;28;20030;-80
2022/08/02 02:33:36;;;;;;;13.80;4.15;;;9.90;99.90;;;8.74;100.00;101442.16;4929396;28;20022;-79
2022/08/02 02:36:10;;;;;;;15.32;4.72;;;9.90;99.90;;;8.70;100.00;101448.38;4948038;28;20039;-78
2022/08/02 02:38:38;;;;;;;27.00;5.40;;;9.90;99.90;;;8.67;100.00;101445.00;4934003;28;20431;-79
2022/08/02 02:41:05;;;;;;;17.10;5.95;;;9.90;99.90;;;8.68;100.00;101438.84;4976819;28;20713;-79
2022/08/02 02:43:34;;;;;;;22.85;6.38;;;9.90;99.90;;;8.71;100.00;101441.41;4950261;28;20051;-79
2022/08/02 02:46:02;;;;;;;22.20;6.20;;;9.90;99.90;;;8.74;100.00;101449.19;4963475;28;20047;-78
2022/08/02 02:48:28;;;;;;;19.30;5.80;;;9.90;99.90;;;8.75;100.00;101446.50;4952688;28;20097;-78
2022/08/02 02:50:55;;;;;;;17.90;4.85;;;9.90;99.90;;;8.76;100.00;101453.47;4963531;28;20080;-79
2022/08/02 02:53:25;;;;;;;15.05;4.55;;;9.90;99.90;;;8.75;100.00;101440.41;4942932;28;20030;-78
2022/08/02 02:55:52;;;;;;;94.38;4.85;;;9.90;99.90;;;8.62;100.00;101440.72;4939252;28;20029;-78
2022/08/02 02:58:18;;;;;;;19.67;4.95;;;9.70;99.90;;;8.45;100.00;101445.56;4931195;28;20042;-78
2022/08/02 03:03:38;;;;;;;15.95;4.20;;;9.40;99.90;;;8.14;100.00;101434.97;4947919;28;20037;-79
2022/08/02 03:06:05;;;;;;;15.50;3.70;;;9.40;99.90;;;8.06;100.00;101436.94;4960155;28;20046;-79
2022/08/02 03:08:30;;;;;;;11.05;3.15;;;9.30;99.90;;;8.02;100.00;101433.50;4942043;28;20031;-78
2022/08/02 03:10:57;;;;;;;9.68;4.07;;;9.30;99.90;;;7.98;100.00;101431.88;4967260;28;20022;-79
2022/08/02 03:13:23;;;;;;;14.98;4.40;;;9.20;99.90;;;7.96;100.00;101426.66;4948214;28;20027;-79
2022/08/02 03:15:54;;;;;;;17.73;5.20;;;9.20;99.90;;;7.95;100.00;101430.19;4932457;28;20034;-78
2022/08/02 03:18:35;;;;;;;17.80;5.13;;;9.20;99.90;;;7.95;100.00;101421.47;4965216;28;20059;-79
2022/08/02 03:21:12;;;;;;;17.40;4.07;;;9.10;99.90;;;7.93;100.00;101418.88;4959734;28;20076;-78
2022/08/02 03:23:39;;;;;;;16.67;4.93;;;9.10;99.90;;;7.96;100.00;101421.41;4938306;28;20091;-78
2022/08/02 03:26:06;;;;;;;20.27;6.32;;;9.20;99.90;;;8.01;100.00;101421.28;4942875;28;25079;-78
2022/08/02 03:28:32;;;;;;;19.13;6.28;;;9.20;99.90;;;8.10;100.00;101422.81;4950721;28;20113;-79
2022/08/02 03:30:59;;;;;;;22.27;6.72;;;9.30;99.90;;;8.16;100.00;101426.19;4946177;28;20023;-78
2022/08/02 03:33:28;;;;;;;11.95;5.10;;;9.40;99.90;;;8.21;100.00;101433.94;4923947;28;20039;-79
2022/08/02 03:35:58;;;;;;;21.20;6.13;;;9.40;99.90;;;8.27;100.00;101438.13;4967772;28;20084;-79
2022/08/02 03:38:25;;;;;;;25.48;6.88;;;9.40;99.90;;;8.29;100.00;101434.56;4942874;28;20027;-79
2022/08/02 03:40:56;;;;;;;15.55;5.65;;;9.50;99.90;;;8.35;100.00;101437.03;4967094;28;20077;-78
2022/08/02 03:43:23;;;;;;;14.25;5.25;;;9.50;99.90;;;8.40;100.00;101434.28;4958384;28;20039;-78
2022/08/02 03:45:50;;;;;;;27.67;6.20;;;9.50;99.90;;;8.41;100.00;101434.28;4932120;28;20396;-79
2022/08/02 03:48:17;;;;;;;14.27;4.53;;;9.50;99.90;;;8.40;100.00;101445.69;4950417;28;24753;-79
2022/08/02 03:50:47;;;;;;;42.95;6.22;;;9.50;99.90;;;8.36;100.00;101443.16;4978990;28;20122;-79
2022/08/02 03:53:15;;;;;;;287.73;9.45;;;9.50;99.90;;;8.30;100.00;101436.31;4938843;28;20056;-79
2022/08/02 03:55:41;;;;;;;16.75;4.60;;;9.50;99.90;;;8.29;100.00;101439.81;4938610;28;20140;-79
2022/08/02 03:58:07;;;;;;;11.60;4.57;;;9.40;99.90;;;8.29;100.00;101438.97;4940234;28;20042;-79
2022/08/02 04:00:39;;;;;;;10.10;3.97;;;9.40;99.90;;;8.34;100.00;101443.19;4960401;28;20455;-79
2022/08/02 04:03:05;;;;;;;11.32;4.40;;;9.50;99.90;;;8.41;100.00;101447.41;4932592;28;20053;-80
2022/08/02 04:05:31;;;;;;;7.90;3.75;;;9.50;99.90;;;8.51;100.00;101452.41;4906676;28;20092;-78
2022/08/02 04:07:57;;;;;;;11.95;4.75;;;9.60;99.90;;;8.65;100.00;101449.44;4956749;28;20499;-80
2022/08/02 04:10:23;;;;;;;11.38;4.20;;;9.70;99.90;;;8.81;100.00;101451.59;4952157;28;20570;-78
2022/08/02 04:12:54;;;;;;;13.00;4.57;;;9.90;99.90;;;9.06;100.00;101456.16;4946667;28;20054;-78
2022/08/02 04:15:21;;;;;;;12.93;5.22;;;10.40;99.90;;;9.89;100.00;101465.94;4965270;28;20039;-78
2022/08/02 04:17:55;;;;;;;12.68;4.43;;;11.60;99.90;;;11.49;97.37;101458.56;4949858;28;20046;-79
2022/08/02 04:20:28;;;;;;;17.50;5.05;;;12.90;99.90;;;13.06;90.67;101473.16;4933204;28;20399;-78
2022/08/02 04:23:03;;;;;;;15.75;3.95;;;14.00;99.90;;;14.24;81.10;101474.69;4945896;28;21109;-79
2022/08/02 04:25:32;;;;;;;10.95;3.60;;;15.20;99.90;;;15.41;75.56;101479.19;4963883;28;20122;-78
2022/08/02 04:27:59;;;;;;;19.05;4.47;;;16.00;99.90;;;16.54;72.08;101482.50;4920182;28;20045;-79
2022/08/02 04:30:31;;;;;;;9.18;3.13;;;17.50;99.90;;;18.53;64.72;101484.97;4947476;28;20052;-79
2022/08/02 04:32:57;;;;;;;8.45;2.97;;;19.00;99.90;;;20.38;58.87;101488.63;4949743;28;20034;-77
2022/08/02 04:35:24;;;;;;;4.15;2.10;;;20.40;99.90;;;22.09;54.46;101500.13;4971377;28;20065;-82
2022/08/02 04:37:51;;;;;;;7.57;1.50;;;21.70;99.90;;;23.59;51.07;101498.91;4950709;28;20041;-77
2022/08/02 04:40:22;;;;;;;6.88;1.60;;;22.80;99.90;;;24.76;48.83;101502.50;4969075;28;20035;-77
2022/08/02 04:42:48;;;;;;;6.22;1.25;;;23.90;98.90;;;25.83;46.66;101517.41;4991525;28;20038;-78
2022/08/02 04:45:14;;;;;;;11.02;1.75;;;24.70;97.60;;;26.75;44.65;101516.22;4971482;28;20081;-78
2022/08/02 04:47:40;;;;;;;10.18;2.10;;;25.50;96.30;;;27.53;43.50;101512.59;4965657;28;20492;-78
2022/08/02 04:50:06;;;;;;;9.55;2.17;;;26.10;95.60;;;27.86;42.84;101520.00;4951385;28;20133;-79
2022/08/02 04:52:32;;;;;;;13.85;2.20;;;26.20;94.60;;;27.67;42.97;101523.78;4977410;28;20395;-78
2022/08/02 04:54:58;;;;;;;13.40;2.97;;;26.30;94.70;;;27.69;42.95;101529.88;4969418;28;20044;-78
2022/08/02 05:00:12;;;;;;;14.77;3.23;;;26.40;94.50;;;27.79;43.06;101544.97;4960106;28;19921;-77
2022/08/02 05:02:38;;;;;;;13.50;2.90;;;26.40;94.30;;;28.01;42.51;101553.50;4967956;28;20058;-78
2022/08/02 05:05:07;;;;;;;11.30;2.95;;;26.50;93.20;;;28.36;41.45;101548.84;4980528;28;20136;-77
2022/08/02 05:07:36;;;;;;;13.93;3.00;;;26.60;94.10;;;28.29;42.29;101559.47;4970984;28;20042;-77
2022/08/02 05:10:02;;;;;;;20.45;3.38;;;26.80;93.80;;;28.70;41.24;101564.09;4932779;28;20050;-79
2022/08/02 05:12:28;;;;;;;12.50;3.47;;;27.10;93.50;;;29.49;39.94;101576.00;4978546;28;20041;-78
2022/08/02 05:14:54;;;;;;;11.95;2.95;;;27.40;93.00;;;29.81;39.33;101574.19;4961206;28;20109;-78
2022/08/02 05:17:20;;;;;;;;;;;27.70;92.60;;;30.83;38.82;101590.28;4956867;28;20081;-77
2022/08/02 05:19:51;;;;;;;15.40;3.25;;;28.20;92.50;;;31.04;38.06;101589.59;4940061;28;19924;-78
2022/08/02 05:22:17;;;;;;;9.75;2.88;;;28.60;91.90;;;31.57;37.24;101595.81;4966527;28;20034;-78
2022/08/02 05:24:43;;;;;;;16.60;3.25;;;28.90;91.30;;;31.77;36.68;101601.53;4936320;28;20477;-78
2022/08/02 05:27:09;;;;;;;14.63;3.58;;;28.90;91.00;;;31.36;37.45;101609.31;4970575;23;20448;-78
2022/08/02 05:29:34;;;;;;;15.63;3.50;;;29.10;90.60;;;32.06;36.39;101618.88;4948794;28;20058;-78
2022/08/02 05:32:00;;;;;;;12.70;2.70;;;29.50;90.60;;;33.04;35.19;101619.19;4971227;28;20110;-78
2022/08/02 05:34:26;;;;;;;9.75;2.63;;;30.00;90.80;;;33.57;34.83;101625.00;4943627;28;20079;-79
2022/08/02 05:36:51;;;;;;;14.18;3.00;;;30.50;90.00;;;33.89;33.87;101631.69;4921515;28;20054;-78
2022/08/02 05:39:20;;;;;;;;;;;30.50;89.50;;;34.14;34.10;101633.91;4923024;28;20065;-78
2022/08/02 05:41:46;;;;;;;12.18;2.72;;;31.00;88.20;;;33.62;33.82;101638.91;4925325;28;19918;-77
2022/08/02 05:44:12;;;;;;;16.17;3.10;;;30.90;87.40;;;32.85;34.97;101639.78;4947183;28;20043;-77
2022/08/02 05:46:38;;;;;;;15.55;2.90;;;30.50;87.90;;;31.92;35.94;101638.78;4947855;23;20034;-78
2022/08/02 05:49:04;;;;;;;12.68;2.58;;;30.00;87.50;;;31.35;36.47;101649.28;4947373;28;20173;-79
2022/08/02 05:51:51;;;;;;;20.80;3.50;;;29.70;88.60;;;31.52;36.13;101660.88;4955288;28;20092;-77
2022/08/02 05:54:37;;;;;;;12.52;2.97;;;29.70;88.30;;;31.77;36.33;101663.28;4985615;28;20038;-78
2022/08/02 05:57:24;;;;;;;14.80;2.90;;;29.50;88.40;;;31.11;36.70;101660.44;4977740;28;20092;-78
2022/08/02 05:59:56;;;;;;;;;;;29.30;88.60;;;30.90;37.24;101655.69;4941471;28;20081;-78
2022/08/02 06:02:37;;;;;;;11.18;2.65;;;29.20;89.60;;;31.40;36.74;101662.31;4940396;28;19918;-77
2022/08/02 06:05:12;;;;;;;12.82;2.78;;;29.50;90.00;;;32.33;35.81;101669.03;4937713;28;20131;-78
2022/08/02 06:07:43;;;;;;;11.93;2.85;;;29.90;88.10;;;32.60;35.14;101667.47;4960296;23;20042;-78
2022/08/02 06:10:14;;;;;;;19.15;2.90;;;30.40;87.60;;;32.95;34.46;101664.03;4933502;28;20035;-78
2022/08/02 06:13:08;;;;;;;14.55;2.78;;;30.60;84.90;;;32.10;35.55;101660.22;4926385;28;20053;-78
2022/08/02 06:15:36;;;;;;;16.05;2.58;;;30.40;84.20;;;32.25;35.43;101669.19;4954645;28;20055;-79
2022/08/02 06:18:03;;;;;;;12.45;2.80;;;30.50;85.70;;;32.45;35.51;101667.50;4941822;28;20635;-78
2022/08/02 06:20:34;;;;;;;11.82;2.35;;;30.60;86.40;;;32.69;35.05;101668.19;4972543;28;20042;-78
2022/08/02 06:23:07;;;;;;;13.20;2.72;;;30.90;85.20;;;32.72;35.13;101675.13;4943938;28;20186;-77
2022/08/02 06:25:36;;;;;;;7.43;2.00;;;31.20;86.20;;;33.13;34.21;101677.19;4967803;28;20045;-80
2022/08/02 06:28:07;;;;;;;12.27;2.40;;;31.50;82.40;;;33.13;33.91;101675.31;4960350;28;20112;-78
2022/08/02 06:30:33;;;;;;;10.90;2.03;;;31.80;83.00;;;33.35;34.08;101669.78;4963710;28;20042;-78
2022/08/02 06:32:59;;;;;;;16.17;2.40;;;32.10;82.30;;;33.70;33.80;101681.63;4968832;28;20037;-78
2022/08/02 06:36:08;;;;;;;11.98;2.15;;;32.60;83.10;;;34.96;32.03;101680.34;4991271;28;20046;-78
2022/08/02 06:39:03;;;;;;;14.48;2.33;;;33.40;81.00;;;35.82;31.16;101676.66;4943546;28;20050;-79
2022/08/02 06:41:39;;;;;;;15.95;2.42;;;34.20;77.20;;;36.07;30.59;101680.34;4929098;28;20082;-78
2022/08/02 06:44:07;;;;;;;10.43;1.95;;;34.40;75.60;;;35.33;31.00;101671.47;4956789;28;20045;-80
2022/08/02 06:46:34;;;;;;;8.52;1.95;;;33.90;76.70;;;34.03;33.08;101667.25;4946908;28;20120;-78
2022/08/02 06:49:01;;;;;;;10.52;1.70;;;33.60;76.00;;;33.80;33.23;101671.16;4959660;28;20066;-79
2022/08/02 06:51:27;;;;;;;11.50;2.30;;;33.40;77.90;;;34.02;32.89;101674.63;4954193;28;20042;-78
2022/08/02 06:53:55;;;;;;;10.43;2.28;;;33.50;79.10;;;34.33;32.77;101669.69;4974931;28;20549;-78
2022/08/02 06:56:23;;;;;;;11.70;2.33;;;33.70;79.00;;;34.75;31.94;101673.16;4966128;28;20076;-79
2022/08/02 06:58:49;;;;;;;7.05;1.88;;;34.00;77.70;;;35.16;31.76;101677.59;4970519;28;20030;-78
2022/08/02 07:01:18;;;;;;;11.95;2.20;;;34.40;77.40;;;35.83;30.86;101670.09;4957316;28;20083;-79
2022/08/02 07:03:44;;;;;;;15.23;2.40;;;35.00;77.20;;;36.27;30.29;101683.00;4962904;28;20030;-78
2022/08/02 07:06:12;;;;;;;8.25;1.88;;;35.60;75.40;;;37.18;29.21;101686.41;4942570;28;20106;-78
2022/08/02 07:08:38;;;;;;;14.80;2.13;;;36.40;74.80;;;38.03;28.65;101695.88;4924353;28;20522;-79
2022/08/02 07:11:07;;;;;;;13.45;2.08;;;36.70;68.70;;;37.61;28.52;101692.97;4943405;28;20034;-79
2022/08/02 07:13:33;;;;;;;9.02;1.88;;;37.10;70.60;;;37.78;28.33;101690.44;4936556;28;20038;-78
2022/08/02 07:15:59;;;;;;;13.02;2.63;;;37.40;68.00;;;38.07;27.96;101700.66;4970159;28;20029;-78
2022/08/02 07:18:27;;;;;;;9.20;1.95;;;37.50;67.50;;;38.00;28.25;101693.56;4957457;28;20044;-79
2022/08/02 07:20:53;;;;;;;11.98;1.90;;;37.50;69.10;;;37.81;28.01;101700.97;4948538;28;20061;-78
2022/08/02 07:23:19;;;;;;;12.60;2.00;;;37.30;66.20;;;37.19;28.30;101689.97;4980118;28;20033;-78
2022/08/02 07:25:46;;;;;;;10.73;1.70;;;37.20;67.50;;;37.29;27.90;101688.41;4951851;23;20039;-79
2022/08/02 07:28:14;;;;;;;14.75;1.88;;;37.10;65.60;;;37.27;27.81;101682.28;4998317;28;20638;-78
2022/08/02 07:30:41;;;;;;;13.15;1.80;;;37.20;67.70;;;37.47;27.88;101689.50;4973731;28;20033;-78
2022/08/02 07:33:14;;;;;;;19.92;2.28;;;37.30;66.20;;;37.52;28.13;101686.91;4980442;28;20109;-79
2022/08/02 07:35:40;;;;;;;14.88;2.13;;;37.60;67.10;;;38.23;27.43;101681.84;4963573;28;20116;-79
2022/08/02 07:38:07;;;;;;;9.75;1.73;;;38.00;63.80;;;38.20;26.82;101685.06;4991266;28;20037;-78
2022/08/02 07:40:36;;;;;;;7.88;1.90;;;38.00;63.90;;;37.89;27.71;101678.69;4983392;28;20120;-79
2022/08/02 07:43:01;;;;;;;8.93;1.98;;;38.10;63.50;;;37.97;26.55;101684.72;4986767;28;20049;-78
2022/08/02 07:45:28;;;;;;;13.25;2.45;;;38.20;62.60;;;38.31;26.16;101676.03;4978970;28;20393;-79
2022/08/02 07:47:55;;;;;;;9.52;1.85;;;38.30;62.30;;;38.51;25.62;101660.09;4967614;28;20050;-79
2022/08/02 07:50:22;;;;;;;7.95;1.85;;;38.50;60.40;;;38.96;25.57;101684.34;4973976;28;20088;-78
2022/08/02 07:52:48;;;;;;;6.88;1.35;;;38.50;59.50;;;37.81;26.16;101670.75;4989542;28;20061;-78
2022/08/02 07:55:17;;;;;;;7.75;1.70;;;38.00;60.00;;;37.07;26.16;101660.50;4950632;28;20411;-79
2022/08/02 07:57:44;;;;;;;12.13;2.17;;;37.20;59.60;;;35.86;26.38;101670.53;4935954;28;20026;-77
2022/08/02 08:00:10;;;;;;;9.73;2.15;;;36.20;61.10;;;34.85;28.22;101665.38;4997894;28;20498;-77
2022/08/02 08:02:37;;;;;;;12.25;1.88;;;35.10;61.10;;;33.58;29.07;101662.16;4988441;28;20552;-79
2022/08/02 08:05:05;;;;;;;11.85;1.95;;;35.00;62.30;;;32.72;29.98;101651.44;4998214;28;20569;-77
2022/08/02 08:07:32;;;;;;;12.30;2.60;;;33.20;64.90;;;31.80;31.80;101643.88;4983498;28;20160;-77
2022/08/02 08:09:59;;;;;;;14.73;2.40;;;32.50;67.10;;;31.95;32.62;101641.13;4975341;28;20050;-77
2022/08/02 08:12:26;;;;;;;11.25;2.00;;;32.40;68.60;;;32.73;31.83;101638.66;5012655;28;20041;-77
2022/08/02 08:14:53;;;;;;;8.80;1.70;;;32.80;68.40;;;33.45;30.72;101643.00;4984886;28;20097;-77
2022/08/02 08:17:19;;;;;;;8.32;1.80;;;33.40;67.00;;;33.90;30.42;101643.47;4967964;28;20580;-77
2022/08/02 08:19:47;;;;;;;10.13;2.05;;;33.90;66.90;;;34.39;30.19;101630.59;4962605;28;20031;-77
2022/08/02 08:22:13;;;;;;;12.32;2.08;;;34.30;66.30;;;34.76;29.42;101631.94;4950739;28;20076;-76
2022/08/02 08:24:39;;;;;;;11.38;2.30;;;34.50;64.70;;;34.73;29.24;101621.38;5002341;28;20038;-78
2022/08/02 08:27:05;;;;;;;9.52;2.33;;;34.60;65.10;;;34.72;29.21;101628.75;5007876;23;20098;-77
2022/08/02 08:29:31;;;;;;;16.90;2.38;;;34.60;66.20;;;34.65;29.73;101629.81;5001567;28;20146;-77
2022/08/02 08:31:57;;;;;;;12.35;2.78;;;34.60;65.50;;;34.55;29.56;101626.63;4990579;28;20144;-77
2022/08/02 08:34:23;;;;;;;15.65;2.22;;;34.50;65.40;;;34.49;29.58;101618.22;5005424;28;20087;-77
2022/08/02 08:36:50;;;;;;;9.23;2.35;;;34.30;64.50;;;34.03;29.94;101621.66;5012663;28;20033;-77
2022/08/02 08:39:16;;;;;;;12.15;2.28;;;34.10;65.70;;;33.78;30.35;101606.84;5016770;28;20117;-77
2022/08/02 08:41:42;;;;;;;10.15;2.10;;;33.80;65.40;;;33.53;30.64;101588.22;5014418;28;20037;-78
2022/08/02 08:44:08;;;;;;;12.35;1.98;;;33.40;65.50;;;32.87;31.30;101588.63;5004665;28;20083;-78
2022/08/02 08:46:37;;;;;;;16.75;2.30;;;33.00;66.20;;;32.47;31.71;101577.38;5023324;28;20041;-78
2022/08/02 08:49:09;;;;;;;12.20;1.92;;;32.50;67.00;;;31.98;32.67;101562.63;5019223;28;20092;-78
2022/08/02 08:51:42;;;;;;;15.93;2.10;;;32.10;69.00;;;31.64;33.67;101560.50;4994837;28;20094;-78
2022/08/02 08:54:15;;;;;;;10.43;1.80;;;31.80;68.10;;;31.38;33.86;101561.00;4993636;28;20034;-77
2022/08/02 08:56:42;;;;;;;11.00;2.20;;;31.50;69.30;;;30.78;34.68;101554.66;5007648;28;20087;-78
2022/08/02 08:59:09;;;;;;;8.35;1.80;;;31.40;70.90;;;30.40;34.54;101543.78;5009825;28;20597;-76
2022/08/02 09:01:37;;;;;;;9.05;2.20;;;30.90;70.60;;;30.20;35.37;101546.13;5029770;28;20049;-78
2022/08/02 09:04:06;;;;;;;11.77;2.40;;;30.60;71.40;;;29.94;35.80;101549.19;5007579;28;20501;-78
2022/08/02 09:06:35;;;;;;;7.75;2.03;;;30.40;69.90;;;29.65;35.04;101543.38;5022071;28;20041;-79
2022/08/02 09:09:01;;;;;;;8.48;1.45;;;30.20;71.50;;;29.61;35.85;101541.16;5001111;28;20030;-78
2022/08/02 09:11:27;;;;;;;8.48;1.65;;;30.10;71.30;;;29.42;35.39;101537.03;4998752;28;20049;-79
2022/08/02 09:14:00;;;;;;;10.18;2.20;;;29.90;70.50;;;29.00;35.93;101522.72;5009369;28;20646;-80
2022/08/02 09:16:46;;;;;;;11.20;1.92;;;29.60;71.80;;;28.97;36.33;101527.66;5002970;28;20393;-76
2022/08/02 09:19:22;;;;;;;13.27;2.63;;;29.50;72.00;;;28.81;36.32;101531.22;5022419;28;20037;-77
2022/08/02 09:21:50;;;;;;;9.32;2.33;;;29.30;72.40;;;28.65;36.69;101523.97;5023231;28;20033;-78
2022/08/02 09:24:23;;;;;;;10.32;2.38;;;29.20;72.80;;;28.63;36.79;101520.59;5064414;28;20084;-78
2022/08/02 09:26:51;;;;;;;10.63;1.90;;;29.10;73.40;;;28.62;37.63;101525.16;5010908;28;20073;-78
2022/08/02 09:29:21;;;;;;;11.10;2.25;;;29.00;72.60;;;28.32;36.91;101520.41;5016728;28;20363;-77
2022/08/02 09:31:49;;;;;;;9.18;1.90;;;28.90;73.60;;;28.37;37.13;101509.91;5017954;28;20422;-77
2022/08/02 09:34:16;;;;;;;9.07;1.95;;;28.90;72.70;;;28.32;37.26;101517.69;4997615;28;20034;-77
2022/08/02 09:36:47;;;;;;;10.23;2.15;;;28.90;72.90;;;28.36;37.08;101521.78;5011188;28;20036;-77
2022/08/02 09:39:16;;;;;;;9.60;1.90;;;28.90;72.70;;;28.26;37.02;101519.22;5021777;28;20034;-76
2022/08/02 09:41:44;;;;;;;8.15;1.98;;;28.80;73.20;;;28.25;36.94;101522.94;5008716;28;20033;-78
2022/08/02 09:44:17;;;;;;;14.02;2.58;;;28.70;73.50;;;28.02;37.63;101501.94;4996737;28;20036;-78
2022/08/02 09:46:47;;;;;;;8.13;1.80;;;28.60;74.20;;;28.16;37.55;101513.09;5025272;28;20102;-77
2022/08/02 09:49:18;;;;;;;10.48;1.73;;;28.60;75.00;;;28.11;37.44;101513.63;5030141;28;20041;-77
2022/08/02 09:51:49;;;;;;;8.70;2.00;;;28.50;73.40;;;27.49;38.05;101505.81;5022941;28;20113;-78
2022/08/02 09:54:23;;;;;;;11.80;2.30;;;28.20;73.10;;;27.08;38.60;101499.38;5023789;28;20025;-78
2022/08/02 09:57:00;;;;;;;9.23;1.70;;;28.00;77.40;;;27.26;40.51;101496.59;5024647;28;20116;-77
2022/08/02 09:59:31;;;;;;;8.95;2.00;;;28.10;75.70;;;27.57;38.43;101500.44;5024480;28;20163;-79
2022/08/02 10:02:08;;;;;;;12.18;2.17;;;28.20;73.30;;;27.72;37.13;101505.22;5040954;28;20053;-78
2022/08/02 10:04:37;;;;;;;13.30;1.83;;;28.20;71.40;;;27.68;37.08;101506.56;4998655;28;20108;-77
2022/08/02 10:07:05;;;;;;;7.72;1.60;;;28.30;71.50;;;27.72;36.44;101499.81;5011494;28;20041;-76
2022/08/02 10:09:34;;;;;;;10.45;1.80;;;28.30;72.40;;;27.70;36.85;101501.84;5007255;28;20576;-77
2022/08/02 10:12:01;;;;;;;6.75;1.80;;;28.30;73.50;;;27.85;37.61;101494.81;5002390;28;20048;-78
2022/08/02 10:14:28;;;;;;;8.70;1.92;;;28.40;71.60;;;27.78;36.66;101499.16;5034691;28;20037;-77
2022/08/02 10:16:57;;;;;;;7.82;1.70;;;28.40;71.70;;;27.87;37.29;101495.47;5039406;28;20025;-78
2022/08/02 10:19:24;;;;;;;13.68;2.38;;;28.40;72.00;;;27.91;37.05;101487.88;4988041;28;20037;-78
2022/08/02 10:22:03;;;;;;;9.23;2.03;;;28.50;73.10;;;27.91;36.99;101480.59;5009904;28;20636;-77
2022/08/02 10:24:32;;;;;;;11.55;1.98;;;28.40;72.90;;;27.72;37.36;101479.00;5009317;28;20033;-78
2022/08/02 10:27:00;;;;;;;12.93;2.53;;;28.40;74.40;;;27.90;38.05;101476.19;4996493;28;20382;-78